Pagrindinis puslapis
METAR-TAF:

METAR-TAF

Oro uostai :

Viterbo oro uostas

Viterbas, Italija

platuma: 42-26N, ilguma: 012-03E, Aukštis: 300 m

Dabartinis oras

Ataskaita buvo paskelbta 3 valandos ir 3 minutes, ne 19:55 UTC
Vėjas 2 kt iš Rytų
Temperatūra 11°C
Drėgmė 66%
Slėgis 1025 hPa
Matomumas 10 km arba daugiau
nėra debesų žemiau 1500 m ir nėra kamuolinių lietaus debesų

METAR: LIRV 071955Z 08002KT CAVOK 11/05 Q1025 RMK SKC MON E SE LIB NC VIS MIN 9999 WIND THR04 ///// KT BLU

Laikas: 00:58 (22:58 UTC)

Prognozė

Ataskaita buvo paskelbta 8 valandos ir 58 minutes, ne 14:00 UTC
Prognozė galioja nuo 07 metu 15 UTC su 07 metu 24 UTC
Vėjas 3 kt nuo kintamojo kryptimis
Matomumas 10 km arba daugiau
Mažai debesys ne aukštis 3000 ft
Laikinai
nuo 07 metu 15 UTC su 07 metu 17 UTC
Vėjas 10 kt iš Vakarų

TAF: LIRV 071400Z 0715/0724 VRB03KT 9999 FEW030 TEMPO 0715/0717 26010KT

Orai ataskaitas ir orų prognozės (METAR, TAF).

turimą stotys yra geltonos ir raudonos taškus žemėlapyje.

Perkelti pele per norėdami pamatyti stoties vardą.

Tada spustelėkite, norėdami matyti oro stebėjimo ir prognozės.

Norėdami pakeisti žemėlapį: spustelėkite ant žalios mygtukų su juodo kryžiaus žemyn,; žalią mygtuką su brūkšneliu, jei norite nutolinti; arba žalių rodyklių gretimoms žemėlapius.


METAR-TAF: